Aviation Digital Data Service (ADDS)

Output produced by METARs form (0515 UTC 25 May 2018)
found at http://www.aviationweather.gov/adds/metars/
 
DTTA 250500Z 10004KT 060V160 9999 FEW033 19/16 Q1015 NOSIG
TAF DTTA 250500Z 2506/2606 07005KT CAVOK
       
DTTG 250500Z VRB02KT CAVOK 18/15 Q1015 NOSIG
DTTF 250500Z 04008KT CAVOK 18/17 Q1015 NOSIG
DTMB 250500Z 16004KT 3000 BR NSC 18/16 Q1016
TAF DTMB 250500Z 2506/2606 11003KT 8000 NSC 
     TEMPO 2506/2508 3000 BR 
     TEMPO 2514/2518 11015KT
       
DTTZ 250500Z 11014KT CAVOK 22/12 Q1014 NOSIG
TAF DTTZ 250500Z 2506/2606 09015KT CAVOK
       
DTTD 250500Z AUTO VRB01KT NCD 18/13 Q1016
DTTB 250500Z 07004KT CAVOK 16/15 Q1015
DTKA 250500Z 07007KT CAVOK 19/14 Q1014 NOSIG
DTTX 250500Z 34003KT CAVOK 17/13 Q1015
TAF DTTX 250500Z 2506/2606 15004KT CAVOK
       
DTTJ 250230Z 03005KT CAVOK 18/16 Q1015 NOSIG
TAF DTTJ 250500Z 2506/2606 07004KT CAVOK 
     BECMG 2513/2515 08015KT